Kahului, Hawaii
Current Conditions -  °F | °C
As of 9:54 PM on Saturday 22 Nov 2014 (Local Time) from PHOG Reporting Station
Clear Clear  
Wind Chill: 71°   Ceiling: Unl
Heat Index: 71°   Visibility: 10mi
Dew Point: 65°   Wind: 5mph
Humidity: 81%   Direction: 130°SE
Pressure: 30.05"   Gusts: NA
Location:  20.89°N, 156.46°W
Report Text: PHOG 230754Z 13004KT 10SM CLR 22/18 A3005 RMK AO2 SLP181 T02170183
Loading
Personal Weather Stations






























Interactive Weather Map New forecast layout! Learn more

10-Day Weather Forecast

Advertisements
Track Severe Weather on mobile